createdAt,value
2022-08-20T00:01:01.574Z,20.08
2022-08-20T00:03:33.028Z,20.60
2022-08-20T00:06:06.069Z,26.73
2022-08-20T00:08:34.341Z,22.13
2022-08-20T00:11:03.257Z,17.85
2022-08-20T00:13:34.642Z,22.25
2022-08-20T00:16:02.702Z,21.60
2022-08-20T00:18:31.007Z,24.88
2022-08-20T00:21:01.051Z,19.95
2022-08-20T00:23:30.274Z,22.48
2022-08-20T00:25:58.737Z,22.13
2022-08-20T00:28:26.558Z,22.90
2022-08-20T00:30:54.674Z,22.90
2022-08-20T00:33:24.494Z,26.42
2022-08-20T00:35:56.321Z,18.83
2022-08-20T00:38:25.555Z,30.50
2022-08-20T00:40:58.449Z,29.58
2022-08-20T00:43:35.525Z,25.35
2022-08-20T00:46:06.890Z,32.40
2022-08-20T00:48:37.402Z,25.50
2022-08-20T00:51:08.624Z,24.15
2022-08-20T00:53:38.922Z,26.02
2022-08-20T00:56:10.582Z,24.85
2022-08-20T00:58:41.192Z,30.48
2022-08-20T01:01:10.384Z,25.58
2022-08-20T01:03:38.341Z,25.67
2022-08-20T01:06:06.704Z,23.13
2022-08-20T01:08:34.677Z,25.48
2022-08-20T01:11:09.973Z,28.70
2022-08-20T01:13:41.789Z,26.35
2022-08-20T01:16:19.134Z,32.05
2022-08-20T01:18:49.413Z,24.70
2022-08-20T01:21:22.155Z,25.15
2022-08-20T01:23:57.061Z,24.88
2022-08-20T01:26:30.219Z,20.17
2022-08-20T01:29:02.486Z,30.90
2022-08-20T01:31:34.170Z,26.75
2022-08-20T01:34:05.068Z,29.65
2022-08-20T01:36:45.543Z,20.45
2022-08-20T01:39:18.439Z,22.98
2022-08-20T01:41:57.094Z,21.67
2022-08-20T01:44:25.739Z,26.30
2022-08-20T01:46:57.756Z,30.73
2022-08-20T01:49:29.415Z,32.22
2022-08-20T01:52:00.420Z,26.77
2022-08-20T01:54:29.294Z,16.92
2022-08-20T01:57:01.649Z,22.20
2022-08-20T01:59:30.632Z,28.35
2022-08-20T02:01:59.832Z,29.05
2022-08-20T02:04:27.842Z,22.30
2022-08-20T02:06:58.412Z,25.80
2022-08-20T02:09:27.980Z,34.35
2022-08-20T02:11:56.535Z,34.78
2022-08-20T02:14:26.640Z,30.92
2022-08-20T02:16:58.374Z,24.40
2022-08-20T02:19:32.090Z,29.80
2022-08-20T02:22:02.349Z,30.30
2022-08-20T02:24:30.938Z,27.20
2022-08-20T02:26:58.806Z,28.55
2022-08-20T02:29:28.053Z,23.70
2022-08-20T02:32:32.341Z,22.85
2022-08-20T02:34:44.178Z,25.08
2022-08-20T02:37:14.593Z,34.45
2022-08-20T02:39:42.419Z,31.40
2022-08-20T02:42:12.292Z,28.77
2022-08-20T02:44:41.625Z,30.73
2022-08-20T02:47:09.397Z,28.73
2022-08-20T02:49:37.643Z,29.48
2022-08-20T02:52:05.820Z,31.27
2022-08-20T02:54:33.609Z,24.23
2022-08-20T02:57:03.543Z,31.95
2022-08-20T02:59:31.610Z,34.85
2022-08-20T03:02:01.334Z,30.20
2022-08-20T03:04:29.435Z,35.28
2022-08-20T03:06:57.741Z,27.25
2022-08-20T03:09:25.622Z,31.20
2022-08-20T03:11:54.366Z,33.47
2022-08-20T03:14:22.349Z,28.90
2022-08-20T03:16:50.453Z,27.55
2022-08-20T03:19:19.747Z,30.40
2022-08-20T03:21:48.076Z,22.52
2022-08-20T03:24:16.166Z,25.45
2022-08-20T03:26:44.279Z,24.90
2022-08-20T03:29:12.186Z,24.15
2022-08-20T03:31:40.040Z,25.50
2022-08-20T03:34:08.195Z,21.80
2022-08-20T03:36:37.671Z,19.73
2022-08-20T03:39:11.550Z,22.77
2022-08-20T03:41:40.197Z,22.23
2022-08-20T03:44:08.097Z,26.35
2022-08-20T03:46:36.047Z,23.25
2022-08-20T03:49:04.507Z,33.13
2022-08-20T03:51:45.815Z,23.60
2022-08-20T03:54:22.999Z,30.25
2022-08-20T03:56:50.869Z,27.55
2022-08-20T03:59:18.723Z,26.67
2022-08-20T04:01:47.088Z,23.98
2022-08-20T04:04:16.101Z,22.48
2022-08-20T04:06:45.403Z,23.05
2022-08-20T04:09:13.428Z,22.45
2022-08-20T04:11:43.090Z,17.45
2022-08-20T04:14:11.996Z,18.65
2022-08-20T04:16:45.703Z,18.33
2022-08-20T04:19:16.904Z,20.73
2022-08-20T04:21:48.722Z,21.85
2022-08-20T04:24:22.532Z,21.58
2022-08-20T04:27:02.644Z,21.30
2022-08-20T04:29:32.400Z,22.27
2022-08-20T04:32:03.353Z,20.33
2022-08-20T04:34:34.825Z,23.40
2022-08-20T04:37:02.681Z,18.35
2022-08-20T04:39:30.733Z,20.35
2022-08-20T04:41:59.420Z,21.27
2022-08-20T04:44:27.425Z,20.55
2022-08-20T04:46:56.056Z,20.73
2022-08-20T04:49:25.025Z,17.40
2022-08-20T04:51:54.534Z,21.42
2022-08-20T04:54:22.494Z,19.70
2022-08-20T04:56:50.953Z,21.92
2022-08-20T04:59:20.122Z,22.73
2022-08-20T05:01:47.891Z,19.55
2022-08-20T05:04:15.882Z,17.55
2022-08-20T05:06:44.458Z,22.67
2022-08-20T05:09:12.405Z,20.08
2022-08-20T05:11:40.450Z,22.25
2022-08-20T05:14:09.899Z,21.83
2022-08-20T05:16:40.515Z,20.88
2022-08-20T05:19:11.270Z,18.15
2022-08-20T05:21:39.142Z,16.55
2022-08-20T05:24:07.628Z,20.30
2022-08-20T05:26:35.833Z,12.93
2022-08-20T05:29:05.157Z,14.15
2022-08-20T05:31:34.609Z,16.73
2022-08-20T05:34:09.361Z,12.40
2022-08-20T05:36:38.424Z,19.80
2022-08-20T05:39:06.388Z,14.55
2022-08-20T05:41:34.164Z,15.23
2022-08-20T05:44:02.037Z,17.63
2022-08-20T05:46:31.055Z,15.65
2022-08-20T05:48:59.732Z,16.60
2022-08-20T05:51:29.941Z,16.15
2022-08-20T05:53:59.451Z,23.00
2022-08-20T05:56:30.460Z,18.20
2022-08-20T05:59:02.441Z,13.63
2022-08-20T06:01:30.491Z,16.60
2022-08-20T06:04:15.937Z,12.43
2022-08-20T06:06:47.286Z,14.88
2022-08-20T06:09:28.021Z,18.58
2022-08-20T06:12:02.304Z,14.30
2022-08-20T06:14:30.936Z,15.43
2022-08-20T06:17:05.367Z,21.70
2022-08-20T06:19:34.158Z,17.88
2022-08-20T06:22:06.767Z,12.98
2022-08-20T06:24:46.372Z,15.48
2022-08-20T06:27:17.025Z,19.63
2022-08-20T06:29:45.361Z,16.13
2022-08-20T06:32:14.061Z,19.98
2022-08-20T06:34:50.494Z,14.98
2022-08-20T06:37:23.626Z,18.38
2022-08-20T06:40:02.765Z,17.88
2022-08-20T06:42:31.080Z,22.55
2022-08-20T06:45:00.428Z,21.65
2022-08-20T06:47:28.229Z,22.23
2022-08-20T06:49:56.174Z,23.65
2022-08-20T06:52:41.582Z,19.88
2022-08-20T06:55:15.966Z,26.63
2022-08-20T06:57:44.678Z,22.85
2022-08-20T07:00:15.261Z,22.92
2022-08-20T07:02:43.366Z,23.40
2022-08-20T07:05:11.692Z,21.95
2022-08-20T07:07:44.988Z,28.95
2022-08-20T07:10:15.404Z,22.67
2022-08-20T07:12:43.341Z,25.48
2022-08-20T07:15:12.913Z,28.52
2022-08-20T07:17:42.322Z,23.00
2022-08-20T07:20:15.054Z,23.13
2022-08-20T07:22:45.349Z,22.10
2022-08-20T07:25:16.112Z,27.30
2022-08-20T07:27:44.713Z,25.83
2022-08-20T07:30:56.481Z,21.77
2022-08-20T07:33:28.363Z,17.17
2022-08-20T07:35:56.601Z,16.55
2022-08-20T07:38:27.515Z,21.80
2022-08-20T07:40:58.758Z,21.50
2022-08-20T07:43:27.548Z,24.80
2022-08-20T07:45:57.565Z,20.90
2022-08-20T07:51:03.580Z,19.92
2022-08-20T07:53:35.815Z,17.67
2022-08-20T07:56:06.825Z,19.50
2022-08-20T07:58:37.150Z,22.13
2022-08-20T08:01:05.585Z,22.45
2022-08-20T08:03:39.865Z,16.33
2022-08-20T08:06:29.847Z,22.48
2022-08-20T08:14:00.721Z,16.63
2022-08-20T08:16:31.052Z,15.00
2022-08-20T08:19:01.951Z,24.02
2022-08-20T08:21:31.981Z,17.25
2022-08-20T08:24:02.588Z,20.02
2022-08-20T08:26:30.564Z,15.27
2022-08-20T08:28:59.022Z,14.30
2022-08-20T08:31:27.537Z,16.85
2022-08-20T08:33:55.485Z,16.88
2022-08-20T08:36:25.261Z,18.52
2022-08-20T08:38:54.561Z,16.58
2022-08-20T08:41:32.106Z,20.80
2022-08-20T08:44:05.697Z,19.00
2022-08-20T08:46:40.222Z,14.43
2022-08-20T08:49:12.589Z,14.40
2022-08-20T08:51:44.997Z,15.98
2022-08-20T08:54:17.219Z,14.43
2022-08-20T08:56:49.833Z,18.42
2022-08-20T08:59:20.526Z,18.08
2022-08-20T09:01:55.287Z,13.18
2022-08-20T09:04:31.528Z,20.02
2022-08-20T09:07:00.595Z,21.65
2022-08-20T09:09:32.370Z,12.63
2022-08-20T09:12:07.288Z,16.65
2022-08-20T09:14:36.382Z,14.02
2022-08-20T09:17:04.929Z,16.63
2022-08-20T09:19:33.067Z,15.57
2022-08-20T09:22:07.439Z,15.43
2022-08-20T09:24:35.547Z,16.92
2022-08-20T09:27:05.137Z,16.10
2022-08-20T09:29:33.594Z,13.50
2022-08-20T09:32:06.373Z,15.68
2022-08-20T09:34:36.989Z,19.20
2022-08-20T09:37:04.929Z,17.08
2022-08-20T09:39:33.145Z,14.73
2022-08-20T09:42:10.001Z,15.82
2022-08-20T09:44:37.873Z,17.05
2022-08-20T09:47:06.431Z,12.93
2022-08-20T09:49:34.425Z,15.20
2022-08-20T09:52:02.634Z,15.32
2022-08-20T09:54:33.657Z,16.83
2022-08-20T09:57:05.455Z,15.93
2022-08-20T09:59:36.761Z,12.48
2022-08-20T10:04:32.658Z,16.63
2022-08-20T10:07:00.672Z,14.82
2022-08-20T10:09:28.462Z,14.07
2022-08-20T10:11:56.263Z,16.75
2022-08-20T10:14:24.780Z,13.65
2022-08-20T10:16:59.922Z,15.82
2022-08-20T10:19:30.076Z,12.32
2022-08-20T10:21:59.106Z,16.88
2022-08-20T10:24:28.161Z,22.15
2022-08-20T10:26:57.469Z,11.55
2022-08-20T10:29:25.906Z,13.43
2022-08-20T10:31:54.865Z,13.38
2022-08-20T10:34:24.691Z,13.75
2022-08-20T10:36:53.305Z,13.07
2022-08-20T10:39:21.427Z,15.15
2022-08-20T10:41:49.385Z,12.27
2022-08-20T10:44:17.669Z,17.35
2022-08-20T10:46:45.957Z,10.65
2022-08-20T10:49:13.913Z,12.95
2022-08-20T10:51:43.204Z,16.08
2022-08-20T10:54:12.507Z,12.88
2022-08-20T10:56:40.909Z,14.70
2022-08-20T10:59:09.368Z,14.02
2022-08-20T11:01:37.157Z,12.68
2022-08-20T11:04:05.755Z,17.13
2022-08-20T11:06:33.705Z,14.77
2022-08-20T11:09:02.871Z,13.07
2022-08-20T11:11:30.849Z,10.52
2022-08-20T11:13:58.968Z,14.80
2022-08-20T11:16:26.808Z,14.60
2022-08-20T11:18:54.733Z,17.17
2022-08-20T11:21:22.757Z,10.07
2022-08-20T11:23:50.521Z,14.00
2022-08-20T11:26:23.571Z,14.25
2022-08-20T11:28:51.466Z,12.57
2022-08-20T11:31:19.509Z,9.95
2022-08-20T11:33:47.342Z,16.58
2022-08-20T11:36:15.282Z,13.27
2022-08-20T11:38:43.288Z,13.35
2022-08-20T11:41:11.226Z,15.23
2022-08-20T11:43:40.598Z,12.80
2022-08-20T11:46:08.620Z,18.33
2022-08-20T11:48:36.635Z,18.33
2022-08-20T11:51:05.210Z,16.88
2022-08-20T11:53:33.277Z,16.27
2022-08-20T11:56:02.407Z,13.98
2022-08-20T11:58:32.671Z,16.10
2022-08-20T12:01:02.059Z,12.80
2022-08-20T12:03:30.903Z,14.40
2022-08-20T12:05:58.670Z,12.50
2022-08-20T12:08:28.209Z,15.15
2022-08-20T12:10:57.752Z,12.40
2022-08-20T12:13:31.465Z,14.10
2022-08-20T12:16:15.724Z,11.52
2022-08-20T12:18:43.566Z,17.27
2022-08-20T12:21:11.713Z,21.75
2022-08-20T12:23:39.766Z,20.67
2022-08-20T12:26:07.692Z,21.42
2022-08-20T12:28:35.596Z,21.95
2022-08-20T12:31:03.558Z,20.90
2022-08-20T12:33:32.827Z,18.02
2022-08-20T12:36:01.857Z,18.83
2022-08-20T12:38:30.042Z,21.80
2022-08-20T12:40:57.975Z,21.52
2022-08-20T12:43:25.794Z,26.42
2022-08-20T12:45:54.216Z,22.85
2022-08-20T12:48:22.015Z,23.80
2022-08-20T12:50:52.651Z,26.45
2022-08-20T12:53:20.660Z,23.38
2022-08-20T12:55:48.469Z,24.33
2022-08-20T12:58:16.318Z,24.35
2022-08-20T13:00:50.733Z,17.92
2022-08-20T13:03:20.691Z,19.67
2022-08-20T13:05:50.302Z,18.85
2022-08-20T13:08:20.013Z,17.05
2022-08-20T13:10:48.420Z,13.27
2022-08-20T13:13:20.377Z,15.38
2022-08-20T13:15:49.169Z,14.90
2022-08-20T13:18:17.124Z,13.00
2022-08-20T13:20:45.205Z,10.60
2022-08-20T13:23:13.026Z,11.85
2022-08-20T13:25:42.380Z,9.35
2022-08-20T13:28:10.217Z,6.85
2022-08-20T13:30:38.682Z,10.98
2022-08-20T13:33:07.051Z,12.52
2022-08-20T13:35:34.928Z,6.00
2022-08-20T13:38:02.767Z,10.95
2022-08-20T13:40:30.769Z,4.88
2022-08-20T13:43:05.901Z,11.60
2022-08-20T13:45:34.591Z,7.13
2022-08-20T13:48:02.374Z,7.68
2022-08-20T13:50:30.366Z,10.20
2022-08-20T13:52:58.644Z,11.75
2022-08-20T13:55:28.089Z,11.85
2022-08-20T13:57:58.069Z,11.90
2022-08-20T14:00:31.095Z,14.75
2022-08-20T14:02:59.700Z,10.52
2022-08-20T14:05:27.699Z,12.93
2022-08-20T14:07:55.451Z,11.13
2022-08-20T14:10:31.189Z,10.25
2022-08-20T14:12:59.627Z,6.57
2022-08-20T14:15:28.873Z,11.93
2022-08-20T14:17:58.649Z,8.23
2022-08-20T14:20:31.968Z,5.30
2022-08-20T14:23:01.653Z,11.98
2022-08-20T14:25:31.652Z,6.78
2022-08-20T14:27:59.875Z,6.85
2022-08-20T14:30:30.948Z,9.88
2022-08-20T14:32:58.986Z,10.00
2022-08-20T14:35:26.838Z,11.45
2022-08-20T14:37:56.603Z,13.27
2022-08-20T14:40:26.352Z,11.68
2022-08-20T14:42:54.969Z,9.73
2022-08-20T14:45:24.037Z,11.88
2022-08-20T14:47:57.089Z,13.48
2022-08-20T14:50:28.505Z,10.75
2022-08-20T14:52:57.394Z,8.23
2022-08-20T14:55:29.019Z,8.93
2022-08-20T14:57:57.579Z,11.98
2022-08-20T15:00:28.074Z,11.27
2022-08-20T15:02:58.146Z,7.50
2022-08-20T15:05:26.273Z,6.90
2022-08-20T15:07:55.025Z,15.40
2022-08-20T15:10:25.886Z,9.23
2022-08-20T15:12:53.919Z,9.57
2022-08-20T15:15:22.660Z,8.73
2022-08-20T15:17:53.217Z,12.00
2022-08-20T15:20:24.515Z,10.52
2022-08-20T15:22:52.899Z,9.27
2022-08-20T15:25:23.058Z,7.95
2022-08-20T15:27:51.668Z,7.65
2022-08-20T15:30:21.659Z,12.68
2022-08-20T15:32:54.612Z,12.73
2022-08-20T15:35:26.838Z,10.55
2022-08-20T15:37:57.684Z,8.93
2022-08-20T15:40:28.662Z,9.90
2022-08-20T15:42:57.575Z,10.88
2022-08-20T15:45:25.942Z,8.88
2022-08-20T15:47:56.524Z,11.68
2022-08-20T15:50:38.970Z,8.30
2022-08-20T15:53:11.591Z,13.85
2022-08-20T15:55:44.971Z,9.18
2022-08-20T15:58:18.837Z,12.83
2022-08-20T16:00:57.066Z,9.27
2022-08-20T16:04:24.690Z,13.63
2022-08-20T16:06:59.601Z,9.32
2022-08-20T16:09:41.322Z,10.68
2022-08-20T16:12:12.462Z,15.05
2022-08-20T16:14:43.608Z,10.75
2022-08-20T16:17:16.077Z,8.80
2022-08-20T16:19:57.030Z,14.18
2022-08-20T16:22:28.950Z,10.20
2022-08-20T16:24:57.735Z,10.57
2022-08-20T16:27:33.533Z,16.60
2022-08-20T16:30:05.294Z,11.57
2022-08-20T16:32:38.547Z,10.85
2022-08-20T16:35:21.160Z,9.82
2022-08-20T16:37:58.817Z,10.70
2022-08-20T16:40:30.115Z,10.93
2022-08-20T16:43:00.505Z,11.88
2022-08-20T16:45:33.484Z,10.60
2022-08-20T16:48:05.385Z,14.55
2022-08-20T16:50:39.263Z,16.77
2022-08-20T16:53:14.775Z,13.25
2022-08-20T16:55:43.348Z,14.30
2022-08-20T16:58:11.163Z,12.15
2022-08-20T17:00:44.861Z,12.65
2022-08-20T17:03:31.646Z,13.48
2022-08-20T17:06:18.069Z,17.48
2022-08-20T17:08:51.109Z,17.65
2022-08-20T17:11:26.139Z,14.55
2022-08-20T17:14:09.038Z,12.73
2022-08-20T17:16:40.692Z,13.68
2022-08-20T17:21:39.114Z,13.90
2022-08-20T17:24:16.478Z,16.05
2022-08-20T17:26:48.146Z,12.48
2022-08-20T17:29:21.158Z,13.97
2022-08-20T17:31:51.679Z,15.15
2022-08-20T17:34:21.490Z,14.00
2022-08-20T17:36:53.371Z,13.10
2022-08-20T17:39:24.789Z,19.67
2022-08-20T17:41:56.109Z,15.95
2022-08-20T17:44:29.479Z,19.63
2022-08-20T17:47:00.021Z,16.13
2022-08-20T17:49:35.158Z,17.38
2022-08-20T17:52:06.478Z,20.38
2022-08-20T17:54:41.350Z,20.65
2022-08-20T17:57:15.625Z,18.52
2022-08-20T17:59:59.686Z,20.70
2022-08-20T18:02:31.813Z,19.92
2022-08-20T18:04:59.981Z,20.55
2022-08-20T18:07:39.401Z,20.58
2022-08-20T18:10:14.676Z,24.58
2022-08-20T18:12:50.670Z,16.88
2022-08-20T18:15:24.295Z,17.15
2022-08-20T18:18:13.171Z,19.73
2022-08-20T18:21:08.258Z,17.88
2022-08-20T18:23:41.402Z,20.83
2022-08-20T18:26:15.018Z,16.90
2022-08-20T18:28:47.870Z,22.48
2022-08-20T18:31:27.088Z,18.33
2022-08-20T18:33:55.993Z,22.73
2022-08-20T18:36:27.464Z,22.85
2022-08-20T18:39:03.649Z,20.33
2022-08-20T18:41:36.469Z,21.52
2022-08-20T18:44:08.156Z,17.20
2022-08-20T18:46:38.094Z,17.85
2022-08-20T18:49:08.498Z,20.77
2022-08-20T18:51:42.017Z,23.08
2022-08-20T18:54:22.629Z,35.88
2022-08-20T18:57:04.966Z,30.17
2022-08-20T18:59:39.015Z,39.90
2022-08-20T19:02:17.339Z,42.78
2022-08-20T19:04:52.838Z,47.30
2022-08-20T19:07:48.997Z,48.10
2022-08-20T19:10:35.394Z,50.17
2022-08-20T19:13:27.981Z,45.80
2022-08-20T19:16:02.508Z,46.42
2022-08-20T19:18:38.365Z,43.28
2022-08-20T19:21:13.453Z,39.35
2022-08-20T19:23:49.368Z,37.13
2022-08-20T19:26:25.287Z,31.65
2022-08-20T19:28:59.920Z,29.83
2022-08-20T19:31:30.629Z,39.63
2022-08-20T19:34:20.247Z,35.45
2022-08-20T19:36:59.462Z,31.05
2022-08-20T19:39:37.101Z,35.20
2022-08-20T19:42:15.138Z,34.35
2022-08-20T19:44:50.174Z,40.40
2022-08-20T19:47:26.465Z,33.58
2022-08-20T19:50:05.657Z,40.55
2022-08-20T19:52:43.241Z,31.58
2022-08-20T19:55:21.538Z,41.20
2022-08-20T19:57:55.265Z,40.63
2022-08-20T20:00:26.147Z,40.70
2022-08-20T20:02:54.269Z,36.63
2022-08-20T20:05:23.210Z,40.28
2022-08-20T20:07:52.876Z,31.80
2022-08-20T20:10:32.560Z,34.75
2022-08-20T20:13:08.587Z,31.88
2022-08-20T20:15:38.540Z,33.30
2022-08-20T20:18:07.258Z,28.90
2022-08-20T20:20:50.218Z,26.85
2022-08-20T20:23:27.690Z,33.00
2022-08-20T20:26:11.909Z,28.73
2022-08-20T20:28:48.151Z,32.03
2022-08-20T20:31:23.417Z,28.52
2022-08-20T20:33:54.934Z,28.92
2022-08-20T20:36:34.906Z,32.75
2022-08-20T20:39:07.265Z,30.73
2022-08-20T20:41:37.942Z,29.17
2022-08-20T20:44:08.397Z,32.30
2022-08-20T20:46:40.638Z,23.75
2022-08-20T20:49:18.799Z,26.27
2022-08-20T20:51:55.230Z,21.38
2022-08-20T20:54:27.270Z,18.13
2022-08-20T20:57:01.295Z,19.90
2022-08-20T20:59:30.253Z,18.58
2022-08-20T21:02:00.577Z,17.95
2022-08-20T21:04:29.298Z,17.27
2022-08-20T21:06:59.327Z,15.07
2022-08-20T21:09:27.646Z,14.10
2022-08-20T21:11:55.633Z,14.88
2022-08-20T21:14:23.770Z,12.30
2022-08-20T21:16:52.022Z,17.20
2022-08-20T21:19:21.523Z,17.75
2022-08-20T21:21:49.581Z,22.35
2022-08-20T21:24:17.521Z,22.02
2022-08-20T21:26:47.051Z,21.80
2022-08-20T21:29:18.057Z,20.15
2022-08-20T21:31:46.790Z,19.48
2022-08-20T21:34:16.443Z,21.52
2022-08-20T21:36:46.381Z,22.60
2022-08-20T21:39:14.573Z,19.75
2022-08-20T21:41:43.090Z,24.85
2022-08-20T21:44:16.127Z,21.38
2022-08-20T21:46:49.761Z,24.17
2022-08-20T21:49:19.496Z,18.85
2022-08-20T21:51:48.887Z,19.70
2022-08-20T21:54:17.237Z,19.50
2022-08-20T21:56:47.586Z,19.20
2022-08-20T21:59:18.093Z,21.58
2022-08-20T22:01:46.401Z,15.73
2022-08-20T22:04:14.262Z,16.63
2022-08-20T22:06:43.061Z,21.17
2022-08-20T22:09:12.516Z,15.77
2022-08-20T22:11:40.394Z,18.27
2022-08-20T22:14:10.224Z,18.83
2022-08-20T22:16:38.619Z,20.38
2022-08-20T22:19:16.184Z,19.33
2022-08-20T22:21:44.872Z,17.97
2022-08-20T22:24:14.761Z,14.55
2022-08-20T22:26:43.694Z,15.93
2022-08-20T22:29:12.931Z,18.38
2022-08-20T22:31:43.615Z,14.25
2022-08-20T22:34:13.530Z,25.20
2022-08-20T22:36:42.158Z,23.15
2022-08-20T22:39:10.469Z,24.67
2022-08-20T22:41:40.369Z,31.67
2022-08-20T22:44:08.855Z,28.25
2022-08-20T22:46:43.669Z,25.25
2022-08-20T22:49:18.890Z,29.98
2022-08-20T22:51:47.039Z,32.45
2022-08-20T22:54:20.381Z,35.80
2022-08-20T22:56:50.999Z,38.10
2022-08-20T22:59:19.886Z,29.00
2022-08-20T23:01:48.272Z,33.38
2022-08-20T23:04:24.161Z,33.45
2022-08-20T23:06:52.489Z,35.67
2022-08-20T23:09:21.309Z,33.53
2022-08-20T23:11:50.979Z,27.13
2022-08-20T23:14:19.686Z,34.20
2022-08-20T23:16:53.270Z,37.35
2022-08-20T23:19:23.176Z,44.88
2022-08-20T23:21:51.833Z,35.58
2022-08-20T23:24:20.917Z,43.17
2022-08-20T23:26:52.757Z,42.05
2022-08-20T23:29:25.659Z,35.63
2022-08-20T23:31:55.494Z,34.78
2022-08-20T23:34:23.587Z,38.60
2022-08-20T23:36:52.387Z,35.22
2022-08-20T23:39:20.746Z,33.45
2022-08-20T23:41:50.461Z,33.78
2022-08-20T23:44:25.191Z,40.35
2022-08-20T23:46:56.644Z,35.10
2022-08-20T23:49:24.624Z,30.52
2022-08-20T23:51:52.671Z,32.30
2022-08-20T23:54:20.817Z,27.15
2022-08-20T23:56:50.253Z,28.65
2022-08-20T23:59:18.225Z,29.40
